Gol B738 at Recife on Feb 16th 2022, temporary runway excursion on landing

Last Update: February 22, 2022 / 19:48:39 GMT/Zulu time

Bookmark this article
Incident Facts

Date of incident
Feb 16, 2022

Classification
Incident

Flight number
G3-1746

Destination
Recife, Brazil

Aircraft Registration
PR-GUH

Aircraft Type
Boeing 737-800

ICAO Type Designator
B738

Airport ICAO Code
SBRF

A Gol Transportes Aereos Boeing 737-800, registration PR-GUH performing flight G3-1746 from Brasilia,DF to Recife,PE (Brazil) with 172 passengers and 6 crew, landed on Recife's runway 18 at 23:40L (02:40Z Feb 17th) but veered right and temporarily went off the right runway edge damaging a number of right runway edge lights. The aircraft returned to the center line and taxied to the apron. There were no injuries.

Brazil's CENIPA rated the occurrence a serious incident and opened an investigation reporting the aircraft received minor damage.

Metars:
SBRF 170400Z 20001KT 9999 SCT023 BKN060 26/23 Q1012=
SBRF 170300Z 12005KT 090V150 8000 VCSH BKN017 SCT050 25/23 Q1012=
SBRF 170200Z 09005KT 030V120 9999 SCT022 BKN100 28/23 Q1013=
SBRF 170100Z 09005KT 060V140 9999 BKN020 BKN100 28/24 Q1013=
SBRF 170000Z 10004KT 9999 BKN019 SCT070 28/24 Q1012=
SBRF 170000Z 10004KT 9999 BKN019 SCT070 28/24 Q1012=
SBRF 162300Z 09005KT 9999 FEW020 28/23 Q1012=
Incident Facts

Date of incident
Feb 16, 2022

Classification
Incident

Flight number
G3-1746

Destination
Recife, Brazil

Aircraft Registration
PR-GUH

Aircraft Type
Boeing 737-800

ICAO Type Designator
B738

Airport ICAO Code
SBRF

This article is published under license from Avherald.com. © of text by Avherald.com.
Article source

You can read 4 more free articles without a subscription.

Subscribe now and continue reading without any limits!

Are you a subscriber?
Login
Subscribe

Read unlimited articles and receive our daily update briefing. Gain better insights into what is happening in commercial aviation safety.

Free newsletter

Want to know more and stay ahead? Get our free weekly newsletter and join 5240 existing subscribers.

By subscribing, you accept our terms and conditions and confirm that you've read our privacy policy.

Send tip

Support AeroInside by sending a small tip amount.

Related articles

Newest articles

Subscribe today

Are you researching aviation incidents? Get access to AeroInside Insights, unlimited read access and receive the daily newsletter.

Pick your plan and subscribe

Partner

Blockaviation logo

A new way to document and demonstrate airworthiness compliance and aircraft value. Find out more.

Virtual Speech logo

ELITE Simulation Solutions is a leading global provider of Flight Simulation Training Devices, IFR training software as well as flight controls and related services. Find out more.

Get updates

Never miss an article from AeroInside. Subscribe to our free weekly newsletter and join 5240 existing subscribers.

By subscribing, you accept our terms and conditions and that you've read our privacy policy.

AeroInside Blog
Popular aircraft
Airbus A320
Boeing 737-800
Boeing 737-800 MAX
Popular airlines
American Airlines
United
Delta
Air Canada
Lufthansa
British Airways